AirNav   Pilot Hours Calculator
 
 1327 users online  

FL73 Orlando Health Central Horizons West Heliport
Windermere, Florida, USA


FAA INFORMATION EFFECTIVE 05 DECEMBER 2019

Location

FAA Identifier: FL73
Lat/Long: 28-27-29.2300N 081-37-58.3600W
28-27.487167N 081-37.972667W
28.4581194,-81.6328778
(estimated)
Elevation: 106 ft. / 32 m (estimated)
From city: 6 miles WSW of WINDERMERE, FL
Time zone: UTC -5 (UTC -4 during Daylight Saving Time)
Zip code: 34787

Heliport Operations

Heliport use: Private use. Permission required prior to landing
Activation date: 10/2018
Control tower: no
ARTCC: JACKSONVILLE CENTER
FSS: SAINT PETERSBURG FLIGHT SERVICE STATION
Attendance: 
Segmented circle: no

Heliport Communications

WX AWOS-3PT at ISM (14 nm SE): 128.775 (407-847-0533)
WX ASOS at ORL (17 nm E): PHONE 407-658-6753
WX ASOS at MCO (17 nm E): PHONE 407-855-5235

Nearby radio navigation aids

VOR radial/distance  VOR name  Freq  Var
ORLr252/16.5ORLANDO VORTAC112.2000E
LALr034/34.7LAKELAND VORTAC116.0001E

Heliport Services

Runway Information

Helipad H1

Dimensions: 42 x 42 ft. / 13 x 13 m
Surface: concrete, in fair condition
Latitude: 28-27.487167N
Longitude: 081-37.972667W
Elevation: 106.0 ft.
Traffic pattern: leftleft

Heliport Ownership and Management from official FAA records

Ownership: Privately-owned
Owner: ORLANDO HEALTH CENTRAL, INC.
10000 W. COLONIAL DR.
OCOEE, FL 34761
Phone 407-296-1773
Manager: TODD DUNCAN
10000 W. COLONIAL DR.
OCOEE, FL 34761
Phone 407-296-1773

Heliport Operational Statistics

Aircraft based on the field: 1
Single engine airplanes: 1
    

Instrument Procedures

There are no published instrument procedures at FL73.

Some nearby airports with instrument procedures:

KISM - Kissimmee Gateway Airport (14 nm SE)
X04 - Orlando Apopka Airport (15 nm N)
KORL - Executive Airport (17 nm E)
KMCO - Orlando International Airport (17 nm E)
KLEE - Leesburg International Airport (24 nm NW)
 
Loc | Ops | Rwys | IFR | FBO | Links
Com | Nav | Svcs | Stats | Notes
Aerial photo
No photo
 
Airport distance calculator
Flying to Orlando Health Central Horizons West Heliport? Find the distance to fly.

From to FL73

Sunrise and sunset
Times for 06-Dec-2019
 Local
(UTC-5)
 Zulu
(UTC)
Morning civil twilight06:4111:41
Sunrise07:0612:06
Sunset17:2922:29
Evening civil twilight17:5522:55

Current date and time
Zulu (UTC)  06-Dec-2019 15:04:25
Local (UTC-5)  06-Dec-2019 10:04:25
 
METAR
KISM 
15nm SE 
061456Z 00000KT 10SM CLR 19/11 A3023 RMK AO2 SLP236 T01940106 51011
KMCO 
16nm E 
061453Z 02005KT 10SM FEW150 SCT250 19/09 A3022 RMK AO2 SLP230 T01940089 51010
KORL 
17nm E 
061453Z 01005KT 10SM CLR 19/07 A3022 RMK AO2 SLP237 T01890072 51012
KLEE 
24nm NW 
061453Z 07003KT 10SM CLR 19/08 A3023 RMK AO2 SLP234 T01890083 50012
KGIF 
24nm S 
061453Z AUTO 09004KT 10SM CLR 19/09 A3022 RMK AO2 SLP234 T01940094 51012
KSFB 
29nm NE 
061453Z 36005KT 10SM CLR 18/09 A3022 RMK AO2 SLP233 T01830094 51012
TAF
KISM 
15nm SE 
061128Z 0612/0712 VRB03KT P6SM BKN250 FM061600 17006KT P6SM FEW040 SCT250 FM062100 24006KT P6SM SCT040 BKN250 FM070000 27005KT P6SM SCT250
KMCO 
16nm E 
061128Z 0612/0718 VRB03KT P6SM BKN250 FM061600 19006KT P6SM FEW040 SCT250 FM062100 22006KT P6SM SCT040 BKN250 FM070000 VRB04KT P6SM SCT250 FM071500 02006KT P6SM SCT250
NOTAMs
Click for the latest NOTAMs
NOTAMs are issued by the DoD/FAA and will open in a separate window not controlled by AirNav.

 

 
 

Would you like to see your business listed on this page?

 If your business provides an interesting product or service to pilots, flight crews, aircraft, or users of the Orlando Health Central Horizons West Heliport, you should consider listing it here.  To start the listing process, click on the button below
 
Add a business
 

Other Pages about Orlando Health Central Horizons West Heliport

Update a link
 
Copyright © AirNav, LLC. All rights reserved. Privacy Policy  Contact